Time;durP1;ratioP1;P1;durP2;ratioP2;P2;SDS_P1;SDS_P2;PMS_P1;PMS_P2;Temp;Humidity;BMP_temperature;BMP_pressure;BME280_temperature;BME280_humidity;BME280_pressure;Samples;Min_cycle;Max_cycle;Signal;HPM_P1;HPM_P2
2021/07/08 00:01:58;;;;;;;3.55;1.00;;;13.70;99.90;;;;;;5055173;28;20025;-74
2021/07/08 00:04:23;;;;;;;3.92;1.05;;;13.70;99.90;;;;;;5055480;28;20021;-74
2021/07/08 00:06:49;;;;;;;3.00;0.60;;;13.70;99.90;;;;;;5049243;28;20096;-74
2021/07/08 00:09:15;;;;;;;6.65;0.90;;;13.60;99.90;;;;;;5037056;28;20440;-75
2021/07/08 00:11:40;;;;;;;4.45;0.98;;;13.60;99.90;;;;;;5054655;28;20531;-74
2021/07/08 00:14:07;;;;;;;5.22;0.98;;;13.60;99.90;;;;;;5046038;28;20112;-74
2021/07/08 00:16:35;;;;;;;8.35;1.77;;;13.60;99.90;;;;;;5017358;28;20072;-75
2021/07/08 00:19:01;;;;;;;9.55;1.25;;;13.60;99.90;;;;;;5053290;28;20017;-74
2021/07/08 00:21:26;;;;;;;4.03;0.90;;;13.50;99.90;;;;;;5054981;28;20035;-74
2021/07/08 00:23:53;;;;;;;2.03;0.77;;;13.50;99.90;;;;;;5053947;28;20048;-74
2021/07/08 00:26:19;;;;;;;3.05;1.30;;;13.50;99.90;;;;;;5054289;28;20028;-74
2021/07/08 00:28:45;;;;;;;3.15;1.33;;;13.50;99.90;;;;;;5054988;28;20100;-74
2021/07/08 00:31:11;;;;;;;3.28;0.85;;;13.50;99.90;;;;;;5054755;28;20444;-74
2021/07/08 00:33:37;;;;;;;1.83;0.70;;;13.50;99.90;;;;;;5054822;28;20025;-74
2021/07/08 00:36:04;;;;;;;3.42;1.05;;;13.40;99.90;;;;;;5054736;28;20054;-74
2021/07/08 00:38:30;;;;;;;3.17;0.88;;;13.30;99.90;;;;;;5054391;28;20025;-74
2021/07/08 00:40:55;;;;;;;1.45;0.50;;;13.30;99.90;;;;;;5020979;28;20401;-74
2021/07/08 00:43:21;;;;;;;1.35;0.88;;;13.40;99.90;;;;;;5051316;28;20022;-74
2021/07/08 00:45:47;;;;;;;1.77;0.70;;;13.40;99.90;;;;;;5036581;28;20025;-74
2021/07/08 00:48:13;;;;;;;1.10;0.47;;;13.40;99.90;;;;;;5054171;28;20103;-74
2021/07/08 00:50:42;;;;;;;1.48;0.50;;;13.50;99.90;;;;;;5036437;28;20107;-74
2021/07/08 00:53:15;;;;;;;2.45;0.90;;;13.40;99.90;;;;;;5054375;28;20049;-74
2021/07/08 00:55:43;;;;;;;1.13;0.68;;;13.50;99.90;;;;;;5047924;28;20048;-74
2021/07/08 00:58:10;;;;;;;2.67;0.80;;;13.50;99.90;;;;;;5035677;28;20033;-74
2021/07/08 01:00:37;;;;;;;2.97;0.80;;;13.50;99.90;;;;;;5036236;28;20108;-74
2021/07/08 01:03:08;;;;;;;1.58;0.60;;;13.50;99.90;;;;;;5036301;28;20033;-74
2021/07/08 01:05:36;;;;;;;3.13;1.23;;;13.60;99.90;;;;;;5034294;28;20021;-74
2021/07/08 01:08:04;;;;;;;3.42;1.05;;;13.60;99.90;;;;;;5052048;28;20417;-74
2021/07/08 01:10:30;;;;;;;3.35;1.05;;;13.60;99.90;;;;;;5034278;28;20043;-74
2021/07/08 01:12:55;;;;;;;2.53;1.08;;;13.60;99.90;;;;;;5033874;28;20478;-74
2021/07/08 01:15:22;;;;;;;4.10;0.68;;;13.70;99.90;;;;;;5034061;28;20029;-74
2021/07/08 01:17:48;;;;;;;2.85;0.80;;;13.70;99.90;;;;;;5052280;28;20049;-74
2021/07/08 01:20:17;;;;;;;3.42;0.95;;;13.70;99.90;;;;;;5053380;28;20040;-74
2021/07/08 01:22:44;;;;;;;3.10;1.23;;;13.80;99.90;;;;;;5053956;28;20580;-75
2021/07/08 01:25:12;;;;;;;5.07;1.98;;;13.80;99.90;;;;;;5035863;28;20478;-75
2021/07/08 01:27:39;;;;;;;4.35;1.17;;;13.80;99.90;;;;;;5035582;28;20037;-75
2021/07/08 01:30:07;;;;;;;4.28;1.38;;;13.90;99.90;;;;;;5054018;28;20021;-74
2021/07/08 01:32:33;;;;;;;5.82;0.85;;;13.90;99.90;;;;;;5052478;28;20025;-75
2021/07/08 01:35:08;;;;;;;3.80;1.00;;;13.90;99.90;;;;;;5047719;28;20036;-75
2021/07/08 01:37:34;;;;;;;4.50;1.40;;;13.90;99.90;;;;;;5053568;28;20039;-75
2021/07/08 01:40:00;;;;;;;5.10;1.48;;;13.90;99.90;;;;;;5052309;28;20096;-75
2021/07/08 01:42:29;;;;;;;2.72;1.50;;;13.90;99.90;;;;;;5042330;28;20068;-75
2021/07/08 01:44:56;;;;;;;12.95;2.08;;;13.90;99.90;;;;;;5035919;28;20025;-74
2021/07/08 01:47:22;;;;;;;4.20;1.25;;;13.90;99.90;;;;;;5033539;28;20022;-74
2021/07/08 01:49:48;;;;;;;5.15;2.05;;;13.90;99.90;;;;;;5018054;28;20071;-75
2021/07/08 01:52:13;;;;;;;4.78;1.45;;;13.90;99.90;;;;;;5037018;28;20028;-75
2021/07/08 01:54:39;;;;;;;4.18;1.60;;;13.90;99.90;;;;;;5033656;28;20026;-75
2021/07/08 01:57:06;;;;;;;3.88;1.17;;;13.90;99.90;;;;;;5033451;28;20123;-74
2021/07/08 01:59:31;;;;;;;1.77;0.60;;;13.90;99.90;;;;;;5033592;28;20475;-74
2021/07/08 02:01:57;;;;;;;4.13;1.52;;;13.90;99.90;;;;;;5053516;28;20036;-74
2021/07/08 02:04:23;;;;;;;3.58;1.15;;;14.00;99.90;;;;;;5034946;28;20036;-74
2021/07/08 02:06:48;;;;;;;3.78;1.17;;;14.00;99.90;;;;;;5032645;28;20029;-74
2021/07/08 02:09:14;;;;;;;4.63;0.90;;;14.00;99.90;;;;;;5039828;28;20017;-74
2021/07/08 02:11:40;;;;;;;5.07;1.05;;;14.10;99.90;;;;;;5035201;28;20078;-74
2021/07/08 02:14:06;;;;;;;2.38;1.33;;;14.00;99.90;;;;;;5053062;28;20029;-75
2021/07/08 02:16:32;;;;;;;2.83;0.93;;;14.00;99.90;;;;;;5053027;28;20025;-75
2021/07/08 02:18:59;;;;;;;1.58;0.63;;;14.00;99.90;;;;;;5040608;28;20037;-75
2021/07/08 02:21:25;;;;;;;4.93;1.40;;;13.90;99.90;;;;;;5048332;28;20029;-75
2021/07/08 02:23:51;;;;;;;3.97;1.10;;;13.90;99.90;;;;;;5034740;28;20449;-75
2021/07/08 02:26:18;;;;;;;4.13;1.02;;;13.80;99.90;;;;;;5053261;28;20381;-75
2021/07/08 02:28:44;;;;;;;3.60;0.93;;;13.80;99.90;;;;;;5035073;28;20013;-75
2021/07/08 02:31:11;;;;;;;2.05;1.02;;;14.00;99.90;;;;;;5034761;28;20029;-75
2021/07/08 02:33:37;;;;;;;6.15;2.50;;;13.70;99.90;;;;;;5017595;28;21501;-75
2021/07/08 02:36:04;;;;;;;3.75;1.27;;;13.70;99.90;;;;;;5052910;28;20025;-74
2021/07/08 02:38:31;;;;;;;2.70;1.40;;;13.60;99.90;;;;;;5033093;28;20029;-74
2021/07/08 02:40:56;;;;;;;5.55;1.38;;;13.60;99.90;;;;;;5015097;28;20024;-74
2021/07/08 02:43:22;;;;;;;4.70;1.50;;;13.50;99.90;;;;;;5015865;28;20218;-74
2021/07/08 02:45:48;;;;;;;5.78;1.60;;;13.50;99.90;;;;;;5044689;28;20029;-75
2021/07/08 02:48:18;;;;;;;5.72;1.90;;;13.50;99.90;;;;;;5036579;28;20073;-74
2021/07/08 02:50:46;;;;;;;6.22;1.83;;;13.40;99.90;;;;;;5036472;28;20025;-75
2021/07/08 02:53:13;;;;;;;4.63;1.77;;;13.40;99.90;;;;;;5019464;28;20505;-74
2021/07/08 02:55:39;;;;;;;3.65;1.30;;;13.30;99.90;;;;;;5036759;28;20060;-75
2021/07/08 02:58:05;;;;;;;2.75;1.10;;;13.30;99.90;;;;;;5036605;28;20036;-75
2021/07/08 03:00:31;;;;;;;3.92;1.35;;;13.30;99.90;;;;;;5036904;28;20059;-74
2021/07/08 03:02:57;;;;;;;4.50;1.65;;;13.30;99.90;;;;;;5036544;28;20029;-74
2021/07/08 03:05:23;;;;;;;3.78;0.90;;;13.30;99.90;;;;;;5020190;28;20375;-74
2021/07/08 03:07:49;;;;;;;11.25;2.67;;;13.30;99.90;;;;;;5036448;28;20105;-74
2021/07/08 03:10:17;;;;;;;5.05;1.42;;;13.30;99.90;;;;;;5018857;28;20028;-74
2021/07/08 03:12:43;;;;;;;3.55;1.40;;;13.30;99.90;;;;;;5036600;28;20360;-75
2021/07/08 03:15:10;;;;;;;4.65;1.50;;;13.30;99.90;;;;;;5039431;28;20040;-75
2021/07/08 03:17:36;;;;;;;4.55;1.35;;;13.30;99.90;;;;;;5043729;28;20148;-74
2021/07/08 03:20:11;;;;;;;6.05;1.40;;;13.30;99.90;;;;;;5036114;28;20116;-74
2021/07/08 03:22:38;;;;;;;3.22;1.20;;;13.30;99.90;;;;;;5036766;28;20025;-75
2021/07/08 03:25:05;;;;;;;5.25;1.27;;;13.20;99.90;;;;;;5033760;28;20024;-75
2021/07/08 03:27:31;;;;;;;6.28;1.33;;;13.20;99.90;;;;;;5037931;28;20075;-75
2021/07/08 03:29:57;;;;;;;2.45;1.30;;;13.10;99.90;;;;;;5055588;28;20029;-75
2021/07/08 03:32:23;;;;;;;3.67;1.30;;;13.10;99.90;;;;;;5055642;28;20048;-76
2021/07/08 03:34:48;;;;;;;4.95;1.30;;;13.10;99.90;;;;;;5042310;28;20029;-76
2021/07/08 03:37:14;;;;;;;2.92;0.85;;;13.10;99.90;;;;;;5035886;28;20025;-75
2021/07/08 03:39:39;;;;;;;3.28;1.00;;;13.20;99.90;;;;;;5036222;28;20410;-75
2021/07/08 03:42:05;;;;;;;1.75;0.68;;;13.20;99.90;;;;;;5038092;28;20731;-75
2021/07/08 03:44:31;;;;;;;2.92;1.13;;;13.20;99.90;;;;;;5050428;28;20064;-75
2021/07/08 03:46:56;;;;;;;1.98;0.70;;;13.30;99.90;;;;;;5050460;28;20017;-75
2021/07/08 03:49:22;;;;;;;3.88;1.45;;;13.30;99.90;;;;;;5037132;28;20021;-74
2021/07/08 03:51:47;;;;;;;8.18;1.75;;;13.30;99.90;;;;;;5055438;28;20040;-75
2021/07/08 03:54:13;;;;;;;5.90;0.80;;;13.40;99.90;;;;;;5046732;28;20430;-75
2021/07/08 03:56:38;;;;;;;2.22;1.42;;;13.40;99.90;;;;;;5055180;28;20398;-75
2021/07/08 03:59:04;;;;;;;1.85;0.98;;;13.50;99.90;;;;;;5054428;28;20390;-74
2021/07/08 04:01:29;;;;;;;2.92;0.82;;;13.60;99.90;;;;;;5037406;28;20134;-75
2021/07/08 04:03:55;;;;;;;2.63;1.02;;;13.60;99.90;;;;;;5031510;28;20378;-75
2021/07/08 04:06:21;;;;;;;6.13;1.25;;;13.60;99.90;;;;;;5035436;28;20036;-75
2021/07/08 04:08:46;;;;;;;1.88;1.08;;;13.70;99.90;;;;;;5053073;28;20017;-75
2021/07/08 04:11:12;;;;;;;5.35;1.42;;;13.70;99.90;;;;;;5054588;28;20028;-75
2021/07/08 04:13:38;;;;;;;2.25;1.23;;;13.80;99.90;;;;;;5034046;28;20028;-75
2021/07/08 04:16:04;;;;;;;2.58;1.20;;;13.90;99.90;;;;;;5050888;28;20024;-75
2021/07/08 04:18:29;;;;;;;2.50;1.15;;;14.00;99.90;;;;;;5055474;28;20108;-75
2021/07/08 04:20:55;;;;;;;3.78;1.30;;;14.10;99.90;;;;;;5055215;28;20017;-75
2021/07/08 04:23:21;;;;;;;3.15;1.30;;;14.10;99.90;;;;;;5053504;28;20032;-75
2021/07/08 04:25:47;;;;;;;3.05;1.02;;;14.20;99.90;;;;;;5036854;28;20425;-75
2021/07/08 04:28:13;;;;;;;1.50;1.02;;;14.20;99.90;;;;;;5055150;28;20494;-75
2021/07/08 04:30:40;;;;;;;2.90;1.25;;;14.30;99.90;;;;;;5054802;28;20025;-75
2021/07/08 04:33:07;;;;;;;5.95;1.98;;;14.40;99.90;;;;;;5039811;28;20399;-74
2021/07/08 04:35:36;;;;;;;1.23;0.90;;;14.40;99.90;;;;;;5053257;28;20040;-74
2021/07/08 04:38:02;;;;;;;5.35;1.23;;;14.50;99.90;;;;;;5042825;28;20028;-75
2021/07/08 04:40:28;;;;;;;2.47;0.98;;;14.60;99.90;;;;;;5016917;28;20048;-75
2021/07/08 04:42:54;;;;;;;5.28;1.65;;;14.70;99.90;;;;;;5034797;28;20037;-75
2021/07/08 04:45:20;;;;;;;3.70;1.15;;;14.80;99.90;;;;;;5050664;28;20039;-75
2021/07/08 04:47:47;;;;;;;5.60;1.48;;;14.90;99.90;;;;;;5054048;28;20025;-75
2021/07/08 04:50:15;;;;;;;3.80;1.60;;;15.00;99.90;;;;;;5054564;28;20022;-75
2021/07/08 04:52:41;;;;;;;6.93;1.83;;;15.20;99.90;;;;;;5036356;28;20068;-75
2021/07/08 04:55:09;;;;;;;5.55;1.13;;;15.20;99.90;;;;;;5020076;28;20060;-76
2021/07/08 04:57:35;;;;;;;3.30;1.63;;;15.20;99.90;;;;;;5034782;28;20025;-76
2021/07/08 05:00:00;;;;;;;4.57;1.20;;;15.30;99.90;;;;;;5030531;28;20024;-75
2021/07/08 05:02:26;;;;;;;2.20;1.20;;;15.40;99.90;;;;;;5054210;28;20025;-75
2021/07/08 05:04:52;;;;;;;4.32;1.23;;;15.50;99.90;;;;;;5033838;28;20509;-77
2021/07/08 05:07:17;;;;;;;4.78;1.48;;;15.50;99.90;;;;;;5054291;28;20378;-78
2021/07/08 05:09:43;;;;;;;2.75;1.08;;;15.60;99.90;;;;;;5039145;28;20036;-76
2021/07/08 05:12:09;;;;;;;3.22;0.95;;;15.60;99.90;;;;;;5034229;28;20026;-77
2021/07/08 05:14:35;;;;;;;2.55;1.02;;;15.70;99.90;;;;;;5022339;28;20367;-76
2021/07/08 05:17:02;;;;;;;4.95;1.60;;;15.80;99.90;;;;;;5034024;28;20033;-77
2021/07/08 05:19:30;;;;;;;2.33;1.42;;;15.80;99.90;;;;;;5034043;28;20430;-77
2021/07/08 05:21:56;;;;;;;3.65;1.08;;;15.90;99.90;;;;;;5034071;28;20033;-76
2021/07/08 05:24:25;;;;;;;5.25;1.15;;;16.00;99.90;;;;;;5036797;28;20025;-76
2021/07/08 05:26:52;;;;;;;5.20;1.60;;;16.00;99.90;;;;;;5016039;28;20052;-77
2021/07/08 05:29:18;;;;;;;2.88;1.40;;;16.10;99.90;;;;;;5040193;28;20093;-76
2021/07/08 05:31:43;;;;;;;2.30;1.05;;;16.10;99.90;;;;;;5035707;28;20041;-75
2021/07/08 05:34:09;;;;;;;1.88;1.00;;;16.40;99.90;;;;;;5024542;28;20037;-74
2021/07/08 05:36:35;;;;;;;3.08;1.33;;;16.20;99.90;;;;;;5043818;28;20021;-76
2021/07/08 05:39:02;;;;;;;3.50;1.60;;;16.30;99.90;;;;;;5043711;28;20053;-76
2021/07/08 05:41:28;;;;;;;4.30;1.17;;;16.30;99.90;;;;;;5025049;28;20033;-76
2021/07/08 05:43:54;;;;;;;2.47;0.93;;;16.30;99.90;;;;;;5033944;28;20459;-77
2021/07/08 05:46:21;;;;;;;3.65;1.33;;;16.50;99.90;;;;;;5044936;28;20387;-77
2021/07/08 05:48:47;;;;;;;3.90;1.70;;;16.60;99.90;;;;;;5045655;28;20015;-76
2021/07/08 05:51:13;;;;;;;3.53;1.15;;;16.60;99.90;;;;;;5034969;28;20083;-77
2021/07/08 05:53:38;;;;;;;3.35;1.30;;;16.80;99.90;;;;;;5027653;28;20033;-76
2021/07/08 05:56:05;;;;;;;2.45;1.55;;;16.90;99.90;;;;;;5034963;28;20060;-76
2021/07/08 05:58:30;;;;;;;2.75;1.00;;;17.00;99.90;;;;;;5033717;28;20471;-77
2021/07/08 06:00:56;;;;;;;2.85;1.30;;;17.20;99.90;;;;;;5016943;28;20017;-76
2021/07/08 06:03:23;;;;;;;4.53;1.25;;;17.30;99.90;;;;;;5015836;28;20029;-76
2021/07/08 06:05:49;;;;;;;4.90;1.77;;;17.40;99.90;;;;;;5034141;28;20025;-76
2021/07/08 06:08:15;;;;;;;4.35;1.33;;;17.50;99.90;;;;;;5033729;28;20068;-76
2021/07/08 06:10:43;;;;;;;3.45;1.40;;;17.60;99.90;;;;;;5017770;28;20017;-77
2021/07/08 06:13:10;;;;;;;4.57;1.35;;;17.60;99.90;;;;;;5025676;28;20029;-77
2021/07/08 06:15:36;;;;;;;3.20;1.30;;;17.80;99.90;;;;;;5033350;28;20108;-77
2021/07/08 06:18:02;;;;;;;9.30;2.38;;;17.80;99.90;;;;;;5015664;28;20482;-77
2021/07/08 06:20:28;;;;;;;3.90;1.75;;;17.90;99.90;;;;;;5033396;28;20025;-77
2021/07/08 06:22:54;;;;;;;2.28;1.25;;;18.00;99.90;;;;;;5026098;28;20473;-77
2021/07/08 06:25:20;;;;;;;3.42;1.00;;;18.80;99.90;;;;;;5057434;28;20022;-77
2021/07/08 06:27:45;;;;;;;6.40;1.55;;;18.40;99.90;;;;;;5039073;28;20025;-77
2021/07/08 06:30:11;;;;;;;7.90;1.58;;;18.60;99.90;;;;;;5057144;28;20488;-76
2021/07/08 06:32:37;;;;;;;5.05;0.77;;;18.80;99.90;;;;;;5034646;28;20036;-77
2021/07/08 06:35:06;;;;;;;4.10;0.73;;;19.10;99.90;;;;;;5037193;28;20498;-77
2021/07/08 06:37:31;;;;;;;;;;;19.30;99.90;;;;;;5019852;28;20048;-77
2021/07/08 06:39:57;;;;;;;2.28;0.47;;;19.40;99.90;;;;;;5019382;28;20362;-77
2021/07/08 06:42:22;;;;;;;9.43;0.85;;;19.50;99.90;;;;;;5039663;28;20076;-77
2021/07/08 06:44:49;;;;;;;3.25;0.30;;;19.70;99.90;;;;;;5057004;28;20021;-77
2021/07/08 06:47:17;;;;;;;1.65;0.52;;;19.80;99.90;;;;;;5037887;28;20028;-77
2021/07/08 06:49:43;;;;;;;2.85;0.40;;;19.80;99.90;;;;;;5057007;28;20013;-77
2021/07/08 06:52:09;;;;;;;4.43;1.25;;;19.80;99.90;;;;;;5064972;23;20132;-76
2021/07/08 06:54:34;;;;;;;5.07;1.33;;;19.90;99.90;;;;;;5038898;28;20059;-76
2021/07/08 06:57:00;;;;;;;3.08;1.00;;;19.90;99.90;;;;;;5056649;28;20025;-76
2021/07/08 06:59:25;;;;;;;1.48;0.70;;;20.00;99.90;;;;;;5056552;28;20029;-76
2021/07/08 07:01:51;;;;;;;1.88;0.68;;;20.00;99.90;;;;;;5027100;28;20068;-76
2021/07/08 07:04:16;;;;;;;2.83;0.70;;;20.30;99.90;;;;;;5054172;28;20071;-76
2021/07/08 07:06:42;;;;;;;4.07;0.30;;;20.70;99.90;;;;;;5029139;28;20020;-76
2021/07/08 07:09:08;;;;;;;3.85;0.43;;;21.00;99.90;;;;;;5036503;28;20021;-77
2021/07/08 07:11:33;;;;;;;2.63;0.28;;;21.20;99.90;;;;;;5036361;28;20088;-77
2021/07/08 07:13:59;;;;;;;4.07;0.40;;;21.30;99.90;;;;;;5051433;28;20378;-76
2021/07/08 07:16:24;;;;;;;0.88;0.35;;;21.30;99.90;;;;;;5054485;28;20048;-76
2021/07/08 07:18:50;;;;;;;0.73;0.00;;;21.30;99.90;;;;;;5042346;28;20072;-76
2021/07/08 07:21:16;;;;;;;0.90;0.20;;;21.30;99.90;;;;;;5018457;28;20037;-76
2021/07/08 07:23:42;;;;;;;2.75;0.30;;;21.20;99.90;;;;;;5019194;28;20021;-75
2021/07/08 07:26:08;;;;;;;1.00;0.17;;;21.10;99.90;;;;;;5036168;28;20076;-75
2021/07/08 07:28:34;;;;;;;0.80;0.20;;;21.00;99.90;;;;;;5036034;28;20026;-76
2021/07/08 07:30:59;;;;;;;3.50;0.20;;;20.70;99.90;;;;;;5018260;28;20021;-76
2021/07/08 07:33:25;;;;;;;1.75;0.35;;;20.60;99.90;;;;;;5028099;28;20086;-76
2021/07/08 07:35:51;;;;;;;1.48;0.20;;;20.40;99.90;;;;;;5054335;28;20041;-76
2021/07/08 07:38:18;;;;;;;0.45;0.00;;;20.30;99.90;;;;;;5055654;28;20035;-76
2021/07/08 07:40:44;;;;;;;0.43;0.15;;;20.40;99.90;;;;;;5055798;28;20440;-76
2021/07/08 07:43:10;;;;;;;1.98;0.22;;;20.50;99.90;;;;;;5046085;28;20015;-76
2021/07/08 07:45:36;;;;;;;3.28;0.20;;;20.70;99.90;;;;;;5019135;28;20056;-76
2021/07/08 07:48:01;;;;;;;1.33;0.10;;;20.80;99.90;;;;;;5017978;28;20068;-76
2021/07/08 07:50:31;;;;;;;1.65;0.10;;;20.90;99.90;;;;;;5017696;28;20458;-76
2021/07/08 07:52:57;;;;;;;3.72;0.50;;;20.90;99.90;;;;;;5040594;28;20021;-76
2021/07/08 07:55:27;;;;;;;0.73;0.30;;;20.90;99.90;;;;;;5055086;28;20500;-76
2021/07/08 07:57:53;;;;;;;0.95;0.10;;;21.00;99.90;;;;;;5018680;28;20029;-76
2021/07/08 08:00:19;;;;;;;0.93;0.20;;;21.10;99.90;;;;;;5035413;28;20434;-76
2021/07/08 08:02:45;;;;;;;0.65;0.30;;;21.20;99.90;;;;;;5020961;28;20021;-76
2021/07/08 08:10:27;;;;;;;1.35;0.30;;;21.00;99.90;;;;;;5055878;28;20116;-75
2021/07/08 08:12:53;;;;;;;2.28;0.73;;;21.00;99.90;;;;;;5050000;28;20505;-75
2021/07/08 08:15:19;;;;;;;2.47;0.10;;;21.10;99.90;;;;;;5035621;28;20123;-75
2021/07/08 08:17:47;;;;;;;2.20;0.38;;;21.40;99.90;;;;;;5019134;28;20022;-75
2021/07/08 08:20:14;;;;;;;3.60;0.50;;;21.70;99.90;;;;;;5055280;28;20505;-74
2021/07/08 08:22:41;;;;;;;2.88;0.30;;;21.80;99.90;;;;;;5054778;28;20083;-74
2021/07/08 08:25:10;;;;;;;1.77;0.22;;;21.90;99.90;;;;;;5037365;28;20021;-74
2021/07/08 08:27:37;;;;;;;2.03;0.32;;;22.10;99.90;;;;;;5036403;28;20020;-76
2021/07/08 08:30:04;;;;;;;1.42;0.30;;;22.50;99.90;;;;;;5035232;28;20083;-75
2021/07/08 08:32:29;;;;;;;1.50;0.32;;;22.60;95.80;;;;;;5034893;28;20029;-75
2021/07/08 08:34:55;;;;;;;2.70;0.20;;;22.70;96.90;;;;;;5034824;28;20025;-74
2021/07/08 08:37:21;;;;;;;3.63;0.08;;;22.90;96.70;;;;;;5034761;28;20467;-74
2021/07/08 08:39:46;;;;;;;2.25;0.30;;;22.90;96.30;;;;;;5052299;28;20368;-74
2021/07/08 08:42:12;;;;;;;1.75;0.30;;;22.90;97.10;;;;;;5036775;28;20512;-74
2021/07/08 08:44:39;;;;;;;2.60;0.50;;;22.70;97.70;;;;;;5053447;28;20059;-75
2021/07/08 08:47:10;;;;;;;2.05;0.03;;;22.80;97.20;;;;;;5052741;28;20059;-75
2021/07/08 08:49:41;;;;;;;1.15;0.10;;;23.00;95.30;;;;;;5037885;28;20021;-75
2021/07/08 08:52:08;;;;;;;0.65;0.40;;;22.90;94.50;;;;;;5034419;28;20086;-75
2021/07/08 08:54:34;;;;;;;1.17;0.32;;;22.70;96.40;;;;;;5034542;28;20519;-75
2021/07/08 08:57:01;;;;;;;2.22;0.20;;;22.60;97.20;;;;;;5016752;28;20433;-75
2021/07/08 08:59:27;;;;;;;2.38;0.20;;;22.60;99.00;;;;;;5048976;28;20488;-75
2021/07/08 09:02:18;;;;;;;2.30;0.43;;;22.70;99.90;;;;;;5054174;28;20064;-75
2021/07/08 09:04:46;;;;;;;1.85;0.25;;;22.90;98.10;;;;;;5015090;28;20018;-75
2021/07/08 09:07:26;;;;;;;1.33;0.20;;;23.00;98.20;;;;;;5015234;28;20536;-75
2021/07/08 09:09:57;;;;;;;1.15;0.13;;;22.90;95.20;;;;;;5014341;28;20022;-75
2021/07/08 09:12:24;;;;;;;0.38;0.10;;;23.00;97.30;;;;;;5013192;28;20081;-75
2021/07/08 09:15:09;;;;;;;3.53;0.32;;;23.00;96.90;;;;;;5013102;28;20022;-75
2021/07/08 09:17:40;;;;;;;3.33;0.10;;;23.00;96.80;;;;;;5020615;28;20036;-75
2021/07/08 09:20:10;;;;;;;2.92;0.93;;;23.20;96.20;;;;;;5053590;28;20036;-75
2021/07/08 09:22:36;;;;;;;2.85;0.50;;;23.20;96.30;;;;;;5035881;28;20029;-73
2021/07/08 09:25:20;;;;;;;2.92;0.60;;;23.30;95.80;;;;;;5053890;28;20029;-73
2021/07/08 09:27:51;;;;;;;2.22;0.65;;;23.40;93.90;;;;;;5035948;28;20512;-73
2021/07/08 09:30:24;;;;;;;0.85;0.10;;;23.50;92.90;;;;;;5053780;28;20359;-73
2021/07/08 09:32:49;;;;;;;1.80;0.35;;;23.60;94.90;;;;;;5035942;28;20028;-73
2021/07/08 09:35:30;;;;;;;1.17;0.13;;;23.70;93.90;;;;;;5053730;28;20040;-73
2021/07/08 09:38:07;;;;;;;1.90;0.45;;;23.90;94.60;;;;;;5035824;28;20107;-73
2021/07/08 09:40:36;;;;;;;3.40;0.17;;;23.80;92.20;;;;;;5053487;28;20116;-73
2021/07/08 09:43:02;;;;;;;1.15;0.10;;;23.80;93.40;;;;;;5053493;28;20033;-73
2021/07/08 09:45:29;;;;;;;2.30;0.63;;;23.50;92.50;;;;;;5035561;28;20385;-73
2021/07/08 09:48:10;;;;;;;0.70;0.20;;;23.20;92.50;;;;;;5053526;28;20040;-73
2021/07/08 09:50:37;;;;;;;2.33;0.60;;;23.30;96.00;;;;;;5035403;28;20025;-75
2021/07/08 09:53:08;;;;;;;0.20;0.20;;;23.60;96.30;;;;;;5053907;28;20021;-73
2021/07/08 09:56:42;;;;;;;0.57;0.30;;;23.90;94.30;;;;;;5052889;28;20024;-73
2021/07/08 09:58:56;;;;;;;0.63;0.05;;;24.10;90.70;;;;;;5036937;28;20536;-74
2021/07/08 10:01:22;;;;;;;1.50;0.30;;;24.20;91.30;;;;;;5034435;28;20040;-74
2021/07/08 10:03:49;;;;;;;0.60;0.20;;;24.50;95.20;;;;;;5033257;28;20418;-74
2021/07/08 10:06:16;;;;;;;2.05;0.10;;;24.50;87.80;;;;;;5015639;28;20026;-74
2021/07/08 10:08:42;;;;;;;1.98;0.50;;;24.70;90.40;;;;;;5044230;28;20391;-74
2021/07/08 10:11:12;;;;;;;1.48;0.08;;;24.50;82.60;;;;;;5054706;28;20017;-74
2021/07/08 10:13:39;;;;;;;0.70;0.20;;;24.30;83.10;;;;;;5043621;28;20033;-75
2021/07/08 10:16:06;;;;;;;1.65;0.20;;;24.40;86.40;;;;;;5033502;28;20410;-77
2021/07/08 10:18:39;;;;;;;1.55;0.38;;;24.60;81.20;;;;;;5033216;28;20030;-73
2021/07/08 10:21:06;;;;;;;0.20;0.20;;;24.50;78.60;;;;;;5015338;28;20021;-75
2021/07/08 10:23:34;;;;;;;2.72;0.52;;;24.50;79.40;;;;;;5032921;28;20033;-77
2021/07/08 10:26:02;;;;;;;1.48;0.35;;;24.70;79.30;;;;;;5032950;28;20033;-76
2021/07/08 10:28:30;;;;;;;0.50;0.15;;;25.00;83.20;;;;;;5041636;28;20021;-76
2021/07/08 10:30:57;;;;;;;1.65;0.10;;;25.10;80.30;;;;;;5043591;28;20056;-76
2021/07/08 10:33:24;;;;;;;2.25;0.20;;;25.40;78.40;;;;;;5052995;28;20021;-76
2021/07/08 10:35:52;;;;;;;0.68;0.35;;;25.80;76.30;;;;;;5034852;28;20482;-76
2021/07/08 10:38:27;;;;;;;2.00;0.20;;;26.10;76.00;;;;;;5035140;28;20493;-76
2021/07/08 10:40:57;;;;;;;1.48;0.00;;;26.10;72.10;;;;;;5052964;28;20029;-76
2021/07/08 10:43:37;;;;;;;0.77;0.00;;;25.60;71.40;;;;;;5035126;28;20428;-76
2021/07/08 10:46:12;;;;;;;1.45;0.30;;;25.50;75.10;;;;;;5053110;28;20096;-76
2021/07/08 10:49:11;;;;;;;1.58;0.25;;;25.70;74.40;;;;;;5053104;28;20457;-76
2021/07/08 10:51:38;;;;;;;2.10;0.00;;;25.70;70.50;;;;;;5034964;28;20363;-76
2021/07/08 10:54:26;;;;;;;0.75;0.10;;;25.80;72.10;;;;;;5052822;28;20536;-76
2021/07/08 10:56:53;;;;;;;0.55;0.20;;;25.90;71.70;;;;;;5052748;28;20082;-76
2021/07/08 10:59:19;;;;;;;1.10;0.10;;;25.80;66.80;;;;;;5036711;28;20536;-75
2021/07/08 11:01:50;;;;;;;1.02;0.20;;;26.00;68.60;;;;;;5032863;28;20038;-75
2021/07/08 11:04:16;;;;;;;1.00;0.03;;;26.60;71.50;;;;;;5033364;28;20168;-74
2021/07/08 11:06:45;;;;;;;0.47;0.00;;;27.00;67.70;;;;;;5033005;28;20041;-74
2021/07/08 11:09:17;;;;;;;0.30;0.30;;;27.20;65.00;;;;;;5018412;28;20020;-74
2021/07/08 11:11:45;;;;;;;0.60;0.20;;;27.20;67.10;;;;;;5036860;28;20071;-75
2021/07/08 11:14:12;;;;;;;0.35;0.00;;;26.70;68.60;;;;;;5018710;28;20017;-75
2021/07/08 11:16:54;;;;;;;1.00;0.10;;;26.50;73.20;;;;;;5036845;28;20025;-75
2021/07/08 11:19:20;;;;;;;0.40;0.00;;;26.30;74.90;;;;;;5036419;28;20029;-76
2021/07/08 11:21:58;;;;;;;0.60;0.10;;;26.20;73.10;;;;;;5051877;28;20367;-75
2021/07/08 11:24:26;;;;;;;2.03;0.10;;;26.60;73.50;;;;;;5057024;28;20029;-75
2021/07/08 11:26:53;;;;;;;1.40;0.05;;;26.90;71.50;;;;;;5037338;28;20033;-75
2021/07/08 11:29:34;;;;;;;0.10;0.10;;;27.00;65.40;;;;;;5054822;28;20435;-71
2021/07/08 11:32:15;;;;;;;0.52;0.10;;;26.80;68.60;;;;;;5036144;28;20521;-75
2021/07/08 11:35:00;;;;;;;1.48;0.10;;;27.10;69.70;;;;;;5018654;28;20017;-76
2021/07/08 11:37:49;;;;;;;1.50;0.25;;;27.20;67.80;;;;;;5036615;28;20493;-78
2021/07/08 11:40:16;;;;;;;0.55;0.05;;;27.40;67.00;;;;;;5026222;28;20095;-77
2021/07/08 11:42:43;;;;;;;0.80;0.10;;;27.30;65.20;;;;;;5036071;28;20260;-75
2021/07/08 11:45:16;;;;;;;0.85;0.10;;;27.20;67.50;;;;;;5035887;28;20014;-75
2021/07/08 11:47:48;;;;;;;1.42;0.05;;;27.20;66.50;;;;;;5035760;28;20028;-75
2021/07/08 11:50:31;;;;;;;0.38;0.13;;;27.20;67.10;;;;;;5035686;28;20018;-76
2021/07/08 11:53:16;;;;;;;1.80;0.10;;;27.00;67.80;;;;;;5036234;28;20029;-75
2021/07/08 11:55:50;;;;;;;2.08;0.20;;;26.60;69.10;;;;;;5034394;28;20116;-75
2021/07/08 11:58:23;;;;;;;0.43;0.10;;;26.50;70.00;;;;;;5035605;28;20028;-75
2021/07/08 12:00:51;;;;;;;2.00;0.45;;;26.40;72.90;;;;;;5036550;28;20030;-75
2021/07/08 12:03:32;;;;;;;1.50;0.28;;;26.40;65.40;;;;;;5035431;28;20029;-75
2021/07/08 12:06:00;;;;;;;0.50;0.30;;;26.50;65.30;;;;;;5035806;28;20045;-75
2021/07/08 12:08:36;;;;;;;1.05;0.20;;;26.80;69.90;;;;;;5035373;28;20114;-75
2021/07/08 12:11:13;;;;;;;2.00;0.17;;;27.00;69.40;;;;;;5035580;28;20043;-75
2021/07/08 12:13:51;;;;;;;1.77;0.10;;;27.10;66.00;;;;;;5035968;28;20061;-75
2021/07/08 12:16:19;;;;;;;0.45;0.15;;;27.00;66.50;;;;;;5035273;28;20025;-75
2021/07/08 12:18:48;;;;;;;1.75;0.20;;;26.70;63.90;;;;;;5016795;28;20033;-75
2021/07/08 12:21:24;;;;;;;0.77;0.00;;;26.40;61.00;;;;;;5035184;28;20486;-75
2021/07/08 12:23:52;;;;;;;0.73;0.30;;;26.50;64.70;;;;;;5035646;28;20025;-75
2021/07/08 12:26:32;;;;;;;0.98;0.10;;;26.60;65.90;;;;;;5024962;28;20474;-75
2021/07/08 12:29:22;;;;;;;0.70;0.13;;;26.60;66.10;;;;;;5050379;28;20029;-75
2021/07/08 12:32:06;;;;;;;0.32;0.00;;;26.00;63.60;;;;;;5047032;28;20021;-75
2021/07/08 12:34:59;;;;;;;0.63;0.30;;;25.80;68.90;;;;;;5017236;28;20506;-75
2021/07/08 12:37:30;;;;;;;1.33;0.00;;;25.50;71.80;;;;;;5017148;28;20048;-75
2021/07/08 12:40:10;;;;;;;2.25;0.20;;;25.30;70.00;;;;;;5017624;28;20534;-75
2021/07/08 12:42:44;;;;;;;0.85;0.10;;;25.40;74.50;;;;;;5034487;28;20033;-75
2021/07/08 12:45:17;;;;;;;0.55;0.10;;;25.80;70.40;;;;;;5028496;28;20060;-75
2021/07/08 12:47:47;;;;;;;0.20;0.10;;;26.00;73.10;;;;;;5026847;28;20027;-79
2021/07/08 12:50:19;;;;;;;1.00;0.50;;;26.10;75.40;;;;;;5046777;28;20018;-77
2021/07/08 12:52:45;;;;;;;2.70;0.22;;;26.10;71.80;;;;;;5035214;28;20087;-77
2021/07/08 12:55:34;;;;;;;2.25;0.13;;;26.00;71.30;;;;;;5036025;28;20470;-78
2021/07/08 12:58:02;;;;;;;1.05;0.30;;;25.90;74.10;;;;;;5018113;28;20076;-78
2021/07/08 13:00:32;;;;;;;4.10;0.63;;;25.80;71.00;;;;;;5036153;28;20423;-77